createdAt,value
2022-09-22T00:01:34.120Z,7.49
2022-09-22T00:04:07.201Z,7.51
2022-09-22T00:06:39.090Z,7.57
2022-09-22T00:09:10.549Z,7.55
2022-09-22T00:11:41.117Z,7.47
2022-09-22T00:14:11.079Z,7.49
2022-09-22T00:16:40.811Z,7.43
2022-09-22T00:19:10.122Z,7.48
2022-09-22T00:21:38.039Z,7.45
2022-09-22T00:24:08.845Z,7.46
2022-09-22T00:26:38.130Z,7.42
2022-09-22T00:29:08.102Z,7.43
2022-09-22T00:31:37.797Z,7.44
2022-09-22T00:34:06.301Z,7.42
2022-09-22T00:36:34.227Z,7.40
2022-09-22T00:39:02.464Z,7.43
2022-09-22T00:41:38.151Z,7.46
2022-09-22T00:44:34.040Z,7.48
2022-09-22T00:47:07.409Z,7.50
2022-09-22T00:49:42.982Z,7.44
2022-09-22T00:52:12.413Z,7.52
2022-09-22T00:54:40.635Z,7.53
2022-09-22T00:57:15.330Z,7.54
2022-09-22T00:59:46.936Z,7.56
2022-09-22T01:02:15.182Z,7.49
2022-09-22T01:04:43.232Z,7.46
2022-09-22T01:07:13.864Z,7.47
2022-09-22T01:09:41.709Z,7.41
2022-09-22T01:12:11.943Z,7.34
2022-09-22T01:14:55.947Z,7.25
2022-09-22T01:17:34.676Z,7.27
2022-09-22T01:20:46.013Z,7.23
2022-09-22T01:23:43.559Z,7.20
2022-09-22T01:26:34.201Z,7.23
2022-09-22T01:29:24.707Z,7.17
2022-09-22T01:32:03.789Z,7.16
2022-09-22T01:34:35.261Z,7.16
2022-09-22T01:37:10.720Z,7.14
2022-09-22T01:39:43.485Z,7.12
2022-09-22T01:42:18.045Z,7.16
2022-09-22T01:44:54.964Z,7.14
2022-09-22T01:47:28.429Z,7.18
2022-09-22T01:50:01.374Z,7.24
2022-09-22T01:52:33.262Z,7.17
2022-09-22T01:55:05.718Z,7.18
2022-09-22T01:57:39.296Z,7.16
2022-09-22T02:00:10.016Z,7.17
2022-09-22T02:02:45.199Z,7.09
2022-09-22T02:05:21.165Z,7.10
2022-09-22T02:07:53.372Z,7.07
2022-09-22T02:10:26.976Z,7.04
2022-09-22T02:12:55.663Z,7.01
2022-09-22T02:15:41.217Z,6.98
2022-09-22T02:18:16.198Z,6.95
2022-09-22T02:20:44.056Z,6.95
2022-09-22T02:23:11.919Z,6.92
2022-09-22T02:25:42.223Z,6.95
2022-09-22T02:28:11.257Z,6.92
2022-09-22T02:30:39.523Z,6.90
2022-09-22T02:33:07.853Z,6.79
2022-09-22T02:35:40.906Z,6.82
2022-09-22T02:38:14.326Z,6.81
2022-09-22T02:40:48.487Z,6.82
2022-09-22T02:43:24.455Z,6.82
2022-09-22T02:45:58.941Z,6.89
2022-09-22T02:48:32.094Z,6.90
2022-09-22T02:51:01.879Z,6.94
2022-09-22T02:53:29.784Z,6.97
2022-09-22T02:55:57.635Z,6.98
2022-09-22T02:58:25.516Z,7.00
2022-09-22T03:00:53.384Z,7.04
2022-09-22T03:03:21.284Z,7.08
2022-09-22T03:05:51.500Z,7.05
2022-09-22T03:08:23.743Z,7.06
2022-09-22T03:10:51.677Z,7.08
2022-09-22T03:13:20.690Z,7.06
2022-09-22T03:15:49.777Z,7.04
2022-09-22T03:18:17.745Z,7.08
2022-09-22T03:20:45.841Z,7.13
2022-09-22T03:23:13.948Z,7.11
2022-09-22T03:25:43.207Z,7.15
2022-09-22T03:28:11.096Z,7.20
2022-09-22T03:30:40.362Z,7.15
2022-09-22T03:33:08.400Z,7.16
2022-09-22T03:35:36.340Z,7.12
2022-09-22T03:38:04.526Z,7.14
2022-09-22T03:40:32.692Z,7.13
2022-09-22T03:43:01.964Z,7.15
2022-09-22T03:45:29.908Z,7.14
2022-09-22T03:47:59.029Z,7.22
2022-09-22T03:50:28.364Z,7.26
2022-09-22T03:52:56.259Z,7.25
2022-09-22T03:55:24.615Z,7.26
2022-09-22T03:57:52.605Z,7.19
2022-09-22T04:00:21.898Z,7.24
2022-09-22T04:02:50.097Z,7.23
2022-09-22T04:05:18.078Z,7.27
2022-09-22T04:07:45.991Z,7.32
2022-09-22T04:10:13.848Z,7.31
2022-09-22T04:12:41.691Z,7.34
2022-09-22T04:15:10.596Z,7.43
2022-09-22T04:17:39.906Z,7.48
2022-09-22T04:20:11.345Z,7.42
2022-09-22T04:22:39.873Z,7.35
2022-09-22T04:25:09.393Z,7.34
2022-09-22T04:27:37.282Z,7.33
2022-09-22T04:30:05.946Z,7.41
2022-09-22T04:32:33.783Z,7.41
2022-09-22T04:35:03.282Z,7.46
2022-09-22T04:37:31.166Z,7.45
2022-09-22T04:40:00.089Z,7.48
2022-09-22T04:42:28.202Z,7.47
2022-09-22T04:45:01.930Z,7.53
2022-09-22T04:47:30.402Z,7.54
2022-09-22T04:49:58.231Z,7.51
2022-09-22T04:52:28.078Z,7.56
2022-09-22T04:54:55.909Z,7.69
2022-09-22T04:57:23.792Z,7.71
2022-09-22T04:59:51.639Z,7.69
2022-09-22T05:02:19.803Z,7.77
2022-09-22T05:04:50.798Z,7.72
2022-09-22T05:07:18.609Z,7.76
2022-09-22T05:09:48.953Z,7.69
2022-09-22T05:12:17.600Z,7.65
2022-09-22T05:14:45.469Z,7.64
2022-09-22T05:17:16.545Z,7.70
2022-09-22T05:19:55.541Z,7.82
2022-09-22T05:22:23.657Z,7.86
2022-09-22T05:24:52.908Z,7.85
2022-09-22T05:27:23.168Z,7.72
2022-09-22T05:29:51.056Z,7.74
2022-09-22T05:32:18.921Z,7.86
2022-09-22T05:34:47.068Z,7.95
2022-09-22T05:37:16.522Z,8.08
2022-09-22T05:39:48.114Z,8.09
2022-09-22T05:42:17.345Z,7.95
2022-09-22T05:44:45.178Z,7.99
2022-09-22T05:47:13.552Z,8.02
2022-09-22T05:49:49.493Z,8.09
2022-09-22T05:52:18.459Z,8.00
2022-09-22T05:54:46.558Z,8.06
2022-09-22T05:57:14.477Z,7.97
2022-09-22T05:59:43.809Z,8.08
2022-09-22T06:02:25.124Z,8.04
2022-09-22T06:04:55.457Z,8.03
2022-09-22T06:07:25.500Z,8.19
2022-09-22T06:09:58.216Z,8.15
2022-09-22T06:12:26.356Z,8.21
2022-09-22T06:14:56.625Z,8.33
2022-09-22T06:17:27.275Z,8.41
2022-09-22T06:19:55.173Z,8.45
2022-09-22T06:22:24.297Z,8.54
2022-09-22T06:24:52.397Z,8.66
2022-09-22T06:27:20.324Z,8.74
2022-09-22T06:29:48.284Z,8.86
2022-09-22T06:32:19.565Z,8.81
2022-09-22T06:34:47.467Z,8.86
2022-09-22T06:37:16.190Z,8.68
2022-09-22T06:39:44.342Z,8.78
2022-09-22T06:42:13.530Z,8.72
2022-09-22T06:44:41.560Z,8.62
2022-09-22T06:47:10.212Z,8.66
2022-09-22T06:49:39.587Z,8.69
2022-09-22T06:52:10.501Z,8.81
2022-09-22T06:54:39.907Z,8.91
2022-09-22T06:57:07.909Z,9.07
2022-09-22T06:59:39.057Z,9.00
2022-09-22T07:02:07.573Z,8.96
2022-09-22T07:04:36.094Z,8.97
2022-09-22T07:07:05.473Z,9.16
2022-09-22T07:09:33.468Z,9.24
2022-09-22T07:12:01.453Z,9.47
2022-09-22T07:14:29.709Z,9.59
2022-09-22T07:16:57.978Z,9.61
2022-09-22T07:19:25.851Z,9.80
2022-09-22T07:21:53.771Z,9.72
2022-09-22T07:24:23.439Z,9.61
2022-09-22T07:26:51.367Z,9.71
2022-09-22T07:29:19.252Z,9.75
2022-09-22T07:31:47.217Z,9.69
2022-09-22T07:34:16.462Z,9.79
2022-09-22T07:36:45.113Z,9.94
2022-09-22T07:39:13.028Z,10.15
2022-09-22T07:41:43.734Z,10.15
2022-09-22T07:44:30.576Z,10.29
2022-09-22T07:46:58.877Z,10.20
2022-09-22T07:49:26.904Z,10.03
2022-09-22T07:51:55.434Z,10.21
2022-09-22T07:54:23.536Z,10.46
2022-09-22T07:56:58.763Z,10.68
2022-09-22T07:59:27.478Z,10.55
2022-09-22T08:01:55.863Z,10.56
2022-09-22T08:04:26.865Z,10.77
2022-09-22T08:06:56.555Z,10.78
2022-09-22T08:09:25.382Z,10.72
2022-09-22T08:11:55.194Z,10.90
2022-09-22T08:14:24.087Z,10.88
2022-09-22T08:16:53.368Z,10.76
2022-09-22T08:19:24.726Z,10.82
2022-09-22T08:21:54.558Z,11.07
2022-09-22T08:24:23.674Z,11.36
2022-09-22T08:26:55.833Z,11.50
2022-09-22T08:29:24.442Z,11.74
2022-09-22T08:31:52.384Z,11.94
2022-09-22T08:34:21.868Z,12.06
2022-09-22T08:36:49.939Z,11.96
2022-09-22T08:39:18.989Z,11.72
2022-09-22T08:42:05.870Z,11.43
2022-09-22T08:44:45.856Z,11.49
2022-09-22T08:47:39.673Z,11.51
2022-09-22T08:50:42.029Z,11.50
2022-09-22T08:53:15.746Z,11.44
2022-09-22T08:55:48.504Z,11.91
2022-09-22T08:58:30.680Z,12.29
2022-09-22T09:01:06.057Z,12.43
2022-09-22T09:03:54.908Z,12.33
2022-09-22T09:06:35.117Z,12.27
2022-09-22T09:09:20.296Z,12.27
2022-09-22T09:12:14.184Z,12.23
2022-09-22T09:15:01.399Z,12.29
2022-09-22T09:17:31.691Z,12.49
2022-09-22T09:20:04.797Z,12.43
2022-09-22T09:22:43.664Z,12.54
2022-09-22T09:25:23.396Z,12.53
2022-09-22T09:27:57.215Z,12.63
2022-09-22T09:30:26.911Z,12.75
2022-09-22T09:32:57.684Z,12.65
2022-09-22T09:35:39.740Z,12.85
2022-09-22T09:38:14.714Z,13.27
2022-09-22T09:40:43.406Z,13.04
2022-09-22T09:43:12.101Z,12.99
2022-09-22T09:45:51.393Z,12.98
2022-09-22T09:48:30.064Z,13.32
2022-09-22T09:51:03.647Z,13.77
2022-09-22T09:53:33.519Z,14.06
2022-09-22T09:56:01.749Z,14.30
2022-09-22T09:58:46.178Z,13.77
2022-09-22T10:01:16.514Z,13.87
2022-09-22T10:03:49.709Z,14.17
2022-09-22T10:06:25.344Z,15.01
2022-09-22T10:08:53.620Z,15.72
2022-09-22T10:11:31.136Z,16.53
2022-09-22T10:13:59.635Z,17.15
2022-09-22T10:16:30.745Z,16.77
2022-09-22T10:19:22.046Z,16.86
2022-09-22T10:21:50.127Z,16.10
2022-09-22T10:24:31.696Z,16.14
2022-09-22T10:27:02.507Z,16.45
2022-09-22T10:29:33.340Z,16.88
2022-09-22T10:32:13.329Z,17.34
2022-09-22T10:37:19.148Z,16.38
2022-09-22T10:39:50.261Z,16.05
2022-09-22T10:42:29.022Z,16.36
2022-09-22T10:45:02.278Z,16.92
2022-09-22T10:47:52.011Z,16.79
2022-09-22T10:50:39.209Z,16.66
2022-09-22T10:53:27.514Z,16.72
2022-09-22T10:56:04.484Z,17.17
2022-09-22T10:58:46.945Z,16.89
2022-09-22T11:01:33.084Z,16.65
2022-09-22T11:04:26.610Z,15.56
2022-09-22T11:07:32.526Z,14.84
2022-09-22T11:10:35.084Z,15.43
2022-09-22T11:13:15.200Z,16.22
2022-09-22T11:15:57.840Z,17.15
2022-09-22T11:18:39.905Z,17.57
2022-09-22T11:21:22.676Z,18.43
2022-09-22T11:24:18.215Z,19.01
2022-09-22T11:26:51.511Z,18.63
2022-09-22T11:29:52.282Z,17.98
2022-09-22T11:32:38.261Z,16.97
2022-09-22T11:35:41.930Z,16.75
2022-09-22T11:38:29.778Z,17.04
2022-09-22T11:41:18.485Z,16.80
2022-09-22T11:44:01.396Z,17.13
2022-09-22T11:46:40.329Z,17.23
2022-09-22T11:49:19.843Z,16.74
2022-09-22T11:52:00.977Z,16.51
2022-09-22T11:54:47.863Z,16.13
2022-09-22T11:57:23.669Z,15.52
2022-09-22T11:59:55.888Z,15.24
2022-09-22T12:02:27.778Z,15.04
2022-09-22T12:05:00.640Z,15.03
2022-09-22T12:07:32.744Z,14.91
2022-09-22T12:10:06.590Z,15.28
2022-09-22T12:12:35.337Z,16.22
2022-09-22T12:15:09.292Z,17.06
2022-09-22T12:17:44.896Z,17.36
2022-09-22T12:20:32.136Z,17.43
2022-09-22T12:23:28.538Z,17.19
2022-09-22T12:26:03.124Z,17.37
2022-09-22T12:28:33.207Z,17.48
2022-09-22T12:31:08.047Z,17.19
2022-09-22T12:36:07.948Z,16.79
2022-09-22T12:38:35.989Z,16.70
2022-09-22T12:41:06.473Z,16.54
2022-09-22T12:43:37.442Z,16.53
2022-09-22T12:46:15.458Z,17.24
2022-09-22T12:48:50.649Z,17.17
2022-09-22T12:51:31.592Z,16.78
2022-09-22T12:54:37.898Z,16.11
2022-09-22T12:57:28.644Z,15.83
2022-09-22T12:59:59.976Z,15.64
2022-09-22T13:02:31.417Z,16.24
2022-09-22T13:05:34.087Z,17.53
2022-09-22T13:08:02.401Z,18.58
2022-09-22T13:11:01.199Z,19.32
2022-09-22T13:13:42.140Z,19.49
2022-09-22T13:16:33.637Z,18.99
2022-09-22T13:19:02.491Z,18.95
2022-09-22T13:21:32.773Z,19.20
2022-09-22T13:24:02.296Z,19.23
2022-09-22T13:26:32.925Z,20.06
2022-09-22T13:29:04.860Z,19.73
2022-09-22T13:31:44.193Z,19.76
2022-09-22T13:34:19.615Z,20.19
2022-09-22T13:36:49.142Z,20.41
2022-09-22T13:39:19.513Z,20.58
2022-09-22T13:41:50.914Z,20.48
2022-09-22T13:44:25.807Z,19.51
2022-09-22T13:46:55.613Z,18.62
2022-09-22T13:49:31.028Z,18.00
2022-09-22T13:52:04.015Z,16.84
2022-09-22T13:54:35.876Z,16.57
2022-09-22T13:57:07.697Z,16.38
2022-09-22T13:59:43.024Z,15.83
2022-09-22T14:02:13.777Z,15.81
2022-09-22T14:04:50.817Z,15.72
2022-09-22T14:07:20.681Z,16.07
2022-09-22T14:09:50.351Z,16.16
2022-09-22T14:12:18.649Z,16.09
2022-09-22T14:14:47.885Z,16.45
2022-09-22T14:17:19.823Z,16.40
2022-09-22T14:20:00.817Z,16.30
2022-09-22T14:22:34.919Z,16.60
2022-09-22T14:25:04.436Z,17.26
2022-09-22T14:27:35.276Z,17.80
2022-09-22T14:30:06.941Z,18.06
2022-09-22T14:32:38.471Z,17.69
2022-09-22T14:35:09.343Z,17.39
2022-09-22T14:37:41.500Z,17.93
2022-09-22T14:40:16.971Z,18.32
2022-09-22T14:42:57.574Z,18.73
2022-09-22T14:45:30.998Z,18.76
2022-09-22T14:48:17.918Z,18.46
2022-09-22T14:50:48.850Z,17.79
2022-09-22T14:53:23.034Z,17.27
2022-09-22T14:55:53.322Z,16.40
2022-09-22T14:58:25.074Z,15.98
2022-09-22T15:01:14.279Z,15.53
2022-09-22T15:03:45.268Z,15.28
2022-09-22T15:06:15.526Z,15.05
2022-09-22T15:08:48.895Z,14.93
2022-09-22T15:11:18.916Z,14.83
2022-09-22T15:13:50.831Z,14.80
2022-09-22T15:16:41.228Z,14.76
2022-09-22T15:19:13.211Z,14.86
2022-09-22T15:21:47.867Z,15.06
2022-09-22T15:24:21.303Z,15.07
2022-09-22T15:26:49.647Z,15.14
2022-09-22T15:29:17.728Z,15.09
2022-09-22T15:31:47.883Z,14.96
2022-09-22T15:34:16.858Z,14.75
2022-09-22T15:36:50.069Z,14.78
2022-09-22T15:39:22.501Z,14.68
2022-09-22T15:41:50.913Z,14.60
2022-09-22T15:44:19.058Z,14.53
2022-09-22T15:46:51.809Z,14.39
2022-09-22T15:49:24.888Z,14.28
2022-09-22T15:56:15.352Z,14.35
2022-09-22T15:59:15.264Z,13.96
2022-09-22T16:02:08.108Z,13.96
2022-09-22T16:05:03.117Z,13.94
2022-09-22T16:07:54.281Z,13.56
2022-09-22T16:10:45.078Z,13.40
2022-09-22T16:14:00.450Z,12.99
2022-09-22T16:20:51.163Z,12.64
2022-09-22T16:23:51.988Z,12.80
2022-09-22T16:31:00.333Z,12.16
2022-09-22T16:34:13.812Z,11.99
2022-09-22T16:40:11.635Z,11.75
2022-09-22T16:46:59.731Z,11.66
2022-09-22T16:50:30.154Z,11.52
2022-09-22T16:53:33.957Z,11.61
2022-09-22T16:56:02.537Z,11.39
2022-09-22T16:58:31.400Z,11.38
2022-09-22T17:01:03.008Z,11.34
2022-09-22T17:03:31.334Z,11.36
2022-09-22T17:06:05.603Z,11.33
2022-09-22T17:08:35.916Z,11.27
2022-09-22T17:11:05.668Z,11.23
2022-09-22T17:13:34.423Z,11.20
2022-09-22T17:16:10.096Z,11.11
2022-09-22T17:18:40.242Z,11.03
2022-09-22T17:21:09.127Z,11.08
2022-09-22T17:23:39.766Z,11.03
2022-09-22T17:26:12.616Z,11.00
2022-09-22T17:28:41.527Z,10.96
2022-09-22T17:31:09.487Z,11.04
2022-09-22T17:33:46.931Z,11.01
2022-09-22T17:36:19.507Z,11.12
2022-09-22T17:38:51.373Z,11.06
2022-09-22T17:41:20.722Z,11.06
2022-09-22T17:43:52.282Z,11.11
2022-09-22T17:46:21.668Z,11.08
2022-09-22T17:49:07.513Z,11.01
2022-09-22T17:51:54.605Z,10.94
2022-09-22T17:54:43.653Z,10.93
2022-09-22T17:57:14.266Z,10.83
2022-09-22T17:59:42.630Z,10.67
2022-09-22T18:02:12.676Z,10.60
2022-09-22T18:04:41.263Z,10.63
2022-09-22T18:07:11.465Z,10.52
2022-09-22T18:09:44.325Z,10.56
2022-09-22T18:12:14.762Z,10.44
2022-09-22T18:14:46.403Z,10.44
2022-09-22T18:17:15.995Z,10.39
2022-09-22T18:19:54.440Z,10.43
2022-09-22T18:22:23.775Z,10.33
2022-09-22T18:24:55.723Z,10.41
2022-09-22T18:27:26.997Z,10.37
2022-09-22T18:29:58.760Z,10.37
2022-09-22T18:32:27.510Z,10.45
2022-09-22T18:34:57.333Z,10.39
2022-09-22T18:37:26.557Z,10.38
2022-09-22T18:39:56.196Z,10.33
2022-09-22T18:42:26.353Z,10.27
2022-09-22T18:44:54.629Z,10.29
2022-09-22T18:47:24.185Z,10.19
2022-09-22T18:49:52.419Z,10.23
2022-09-22T18:52:23.981Z,10.14
2022-09-22T18:54:53.271Z,10.10
2022-09-22T18:57:24.421Z,10.04
2022-09-22T18:59:52.418Z,10.12
2022-09-22T19:02:22.872Z,10.22
2022-09-22T19:04:52.000Z,10.21
2022-09-22T19:07:41.426Z,10.14
2022-09-22T19:10:11.757Z,10.16
2022-09-22T19:13:03.521Z,10.29
2022-09-22T19:15:32.071Z,10.25
2022-09-22T19:17:59.997Z,10.17
2022-09-22T19:20:34.995Z,10.08
2022-09-22T19:23:06.452Z,10.01
2022-09-22T19:25:35.242Z,10.07
2022-09-22T19:28:05.485Z,9.99
2022-09-22T19:30:34.317Z,9.98
2022-09-22T19:33:03.448Z,9.91
2022-09-22T19:35:34.088Z,9.96
2022-09-22T19:38:05.278Z,9.99
2022-09-22T19:40:34.174Z,10.05
2022-09-22T19:43:04.030Z,9.95
2022-09-22T19:45:32.203Z,10.00
2022-09-22T19:48:00.178Z,9.94
2022-09-22T19:50:28.073Z,9.96
2022-09-22T19:52:55.951Z,9.89
2022-09-22T19:55:23.831Z,9.90
2022-09-22T19:57:52.351Z,9.84
2022-09-22T20:00:26.427Z,9.88
2022-09-22T20:02:58.635Z,9.82
2022-09-22T20:05:29.209Z,9.86
2022-09-22T20:07:57.168Z,9.86
2022-09-22T20:10:25.560Z,9.89
2022-09-22T20:12:53.865Z,9.94
2022-09-22T20:15:22.130Z,9.85
2022-09-22T20:17:50.001Z,9.96
2022-09-22T20:20:19.941Z,10.00
2022-09-22T20:22:48.950Z,9.89
2022-09-22T20:25:25.563Z,10.06
2022-09-22T20:27:53.572Z,9.98
2022-09-22T20:30:23.296Z,9.84
2022-09-22T20:32:52.650Z,10.01
2022-09-22T20:35:21.975Z,9.99
2022-09-22T20:37:51.608Z,10.06
2022-09-22T20:40:24.373Z,10.13
2022-09-22T20:42:54.551Z,10.21
2022-09-22T20:45:24.849Z,10.22
2022-09-22T20:47:55.006Z,10.12
2022-09-22T20:50:25.351Z,10.11
2022-09-22T20:52:53.666Z,10.21
2022-09-22T20:55:22.110Z,10.06
2022-09-22T20:57:50.221Z,10.06
2022-09-22T21:00:18.376Z,9.95
2022-09-22T21:02:47.789Z,9.86
2022-09-22T21:05:16.098Z,9.80
2022-09-22T21:07:44.153Z,9.90
2022-09-22T21:10:29.676Z,9.80
2022-09-22T21:12:58.641Z,9.86
2022-09-22T21:15:26.700Z,9.85
2022-09-22T21:17:56.212Z,9.82
2022-09-22T21:20:24.273Z,9.77
2022-09-22T21:22:54.221Z,9.82
2022-09-22T21:25:25.580Z,9.80
2022-09-22T21:27:55.116Z,9.73
2022-09-22T21:30:23.243Z,9.71
2022-09-22T21:32:51.389Z,9.81
2022-09-22T21:35:20.794Z,9.78
2022-09-22T21:37:48.892Z,9.88
2022-09-22T21:40:17.657Z,9.94
2022-09-22T21:42:45.740Z,9.95
2022-09-22T21:45:14.087Z,9.98
2022-09-22T21:47:42.082Z,9.98
2022-09-22T21:50:10.861Z,9.95
2022-09-22T21:52:40.099Z,9.87
2022-09-22T21:55:08.836Z,9.83
2022-09-22T21:57:36.671Z,9.82
2022-09-22T22:00:07.552Z,9.81
2022-09-22T22:02:55.850Z,9.82
2022-09-22T22:05:23.721Z,9.83
2022-09-22T22:07:53.020Z,9.80
2022-09-22T22:10:21.390Z,9.75
2022-09-22T22:12:49.482Z,9.72
2022-09-22T22:15:17.646Z,9.73
2022-09-22T22:17:45.661Z,9.52
2022-09-22T22:20:13.511Z,9.58
2022-09-22T22:22:41.355Z,9.49
2022-09-22T22:25:17.409Z,9.46
2022-09-22T22:27:45.817Z,9.40
2022-09-22T22:30:14.415Z,9.33
2022-09-22T22:32:42.559Z,9.30
2022-09-22T22:35:11.745Z,9.23
2022-09-22T22:37:39.928Z,9.26
2022-09-22T22:40:08.754Z,9.21
2022-09-22T22:42:38.310Z,9.14
2022-09-22T22:45:06.912Z,9.11
2022-09-22T22:47:34.935Z,9.11
2022-09-22T22:50:02.856Z,9.07
2022-09-22T22:52:31.330Z,9.10
2022-09-22T22:54:59.208Z,9.09
2022-09-22T22:57:27.092Z,9.09
2022-09-22T22:59:57.098Z,9.03
2022-09-22T23:02:24.957Z,9.07
2022-09-22T23:04:53.286Z,9.03
2022-09-22T23:07:21.234Z,8.99
2022-09-22T23:10:06.011Z,8.95
2022-09-22T23:12:34.628Z,8.87
2022-09-22T23:15:04.568Z,8.85
2022-09-22T23:17:32.671Z,8.93
2022-09-22T23:20:00.537Z,8.96
2022-09-22T23:22:28.351Z,8.96
2022-09-22T23:24:56.245Z,8.95
2022-09-22T23:27:24.221Z,8.87
2022-09-22T23:29:52.282Z,8.81
2022-09-22T23:32:21.495Z,8.87
2022-09-22T23:34:49.310Z,8.90
2022-09-22T23:37:17.234Z,8.85
2022-09-22T23:39:45.128Z,8.89
2022-09-22T23:42:13.075Z,8.88
2022-09-22T23:44:40.990Z,8.83
2022-09-22T23:47:12.180Z,8.78
2022-09-22T23:49:43.528Z,8.79
2022-09-22T23:52:11.540Z,8.86
2022-09-22T23:54:39.396Z,8.82
2022-09-22T23:57:07.280Z,8.76
2022-09-22T23:59:35.135Z,8.71
